Terminal Aerodrome Forecast
Issued by NWS

Home | Current Version | Previous Version | Text Only | Print | Product List | Glossary On
Versions: 1 2 3 4 5 6 7 8 9 10 11 12 13 14 15 16 17 18 19 20 21 22 23
000
FTUS44 KLZK 190000 AAA
TAFHRO
TAF AMD
KHRO 190024Z 1900/1924 00000KT P6SM OVC005
     FM190300 08003KT 4SM BR OVC005
     FM190800 07003KT 2SM -DZ BR OVC003
      TEMPO 1909/1913 1/2SM FG VV001
     FM191600 11004KT 5SM BR OVC007
     FM192000 12004KT 6SM BR OVC015=

USA.gov is the U.S. government's official web portal to all federal, state and local government web resources and services.